Time;durP1;ratioP1;P1;durP2;ratioP2;P2;SDS_P1;SDS_P2;PMS_P1;PMS_P2;Temp;Humidity;BMP_temperature;BMP_pressure;BME280_temperature;BME280_humidity;BME280_pressure;Samples;Min_cycle;Max_cycle;Signal;HPM_P1;HPM_P2
2023/12/10 00:03:39;;;;;;;4.45;1.70;;;;;;;16.86;97.19;101322.47;10371146;28;98836;-78
2023/12/10 00:08:42;;;;;;;3.47;1.63;;;;;;;16.91;97.14;101324.91;10381781;28;98639;-78
2023/12/10 00:13:47;;;;;;;2.75;1.45;;;;;;;16.80;97.50;101311.28;10381351;28;96837;-78
2023/12/10 00:18:51;;;;;;;2.38;1.80;;;;;;;16.82;97.52;101320.91;10378941;28;96662;-78
2023/12/10 00:23:54;;;;;;;3.40;2.08;;;;;;;16.85;97.83;101315.44;10380048;28;97052;-78
2023/12/10 00:28:59;;;;;;;2.05;1.60;;;;;;;16.83;98.13;101327.94;10375659;28;97569;-78
2023/12/10 00:34:02;;;;;;;;;;;;;;;16.85;98.25;101319.88;10379797;28;97310;-77
2023/12/10 00:39:09;;;;;;;2.60;1.10;;;;;;;16.89;97.83;101318.81;10400786;28;96743;-78
2023/12/10 00:44:14;;;;;;;3.58;1.60;;;;;;;16.86;97.24;101308.34;10372277;28;96791;-78
2023/12/10 00:49:18;;;;;;;2.08;1.33;;;;;;;16.80;98.42;101308.63;10392825;28;96718;-78
2023/12/10 00:54:21;;;;;;;1.53;1.07;;;;;;;16.79;98.26;101306.91;10400563;28;96852;-78
2023/12/10 00:59:26;;;;;;;3.00;2.35;;;;;;;16.75;98.19;101303.53;10388360;28;96829;-78
2023/12/10 01:04:29;;;;;;;3.85;2.20;;;;;;;16.75;98.48;101298.22;10378931;28;98283;-78
2023/12/10 01:09:35;;;;;;;3.28;1.80;;;;;;;16.78;98.27;101299.84;10384161;28;96841;-78
2023/12/10 01:14:41;;;;;;;1.90;1.50;;;;;;;16.78;98.24;101292.75;10378782;28;97579;-78
2023/12/10 01:19:44;;;;;;;4.45;1.10;;;;;;;16.77;97.80;101284.84;10375515;28;97192;-78
2023/12/10 01:24:47;;;;;;;1.60;1.13;;;;;;;16.81;98.41;101270.44;10376509;28;96726;-78
2023/12/10 01:29:53;;;;;;;1.45;1.00;;;;;;;16.81;98.72;101281.94;10388302;28;98296;-78
2023/12/10 01:34:56;;;;;;;0.93;0.80;;;;;;;16.86;98.58;101268.44;10383089;28;96809;-78
2023/12/10 01:40:00;;;;;;;2.92;0.82;;;;;;;16.90;98.23;101265.56;10392963;28;98728;-78
2023/12/10 01:45:06;;;;;;;1.02;0.82;;;;;;;16.93;98.21;101273.38;10380440;28;98108;-78
2023/12/10 01:50:11;;;;;;;2.45;0.77;;;;;;;16.91;98.65;101267.25;10385917;28;98714;-78
2023/12/10 01:55:15;;;;;;;1.83;0.70;;;;;;;16.93;98.54;101261.88;10380258;28;97372;-78
2023/12/10 02:00:21;;;;;;;0.97;0.80;;;;;;;16.91;98.65;101258.44;10385566;28;97169;-78
2023/12/10 02:05:25;;;;;;;1.08;0.60;;;;;;;16.93;98.53;101253.88;10383452;28;98844;-79
2023/12/10 02:10:29;;;;;;;1.08;0.90;;;;;;;16.90;98.38;101260.25;10390745;28;96840;-78
2023/12/10 02:15:34;;;;;;;1.30;0.77;;;;;;;16.87;98.48;101257.75;10380448;28;96892;-78
2023/12/10 02:20:38;;;;;;;0.85;0.70;;;;;;;16.89;98.53;101247.91;10383904;28;96920;-79
2023/12/10 02:25:43;;;;;;;1.38;0.73;;;;;;;16.83;98.42;101250.84;10385858;28;96788;-79
2023/12/10 02:30:46;;;;;;;1.35;0.90;;;;;;;16.81;98.82;101247.38;10373600;28;98965;-78
2023/12/10 02:35:50;;;;;;;3.20;1.20;;;;;;;16.83;98.66;101239.34;10381495;28;98998;-78
2023/12/10 02:40:55;;;;;;;2.43;0.93;;;;;;;16.84;98.60;101239.25;10384121;28;96908;-78
2023/12/10 02:45:59;;;;;;;1.50;1.00;;;;;;;16.79;98.91;101235.97;10385102;28;96792;-78
2023/12/10 02:51:03;;;;;;;3.60;1.33;;;;;;;16.75;98.63;101234.41;10370230;28;96892;-78
2023/12/10 02:56:09;;;;;;;1.90;1.00;;;;;;;16.79;99.18;101235.13;10392057;28;97501;-78
2023/12/10 03:01:13;;;;;;;2.33;1.50;;;;;;;16.71;98.54;101221.34;10397399;28;97794;-78
2023/12/10 03:06:17;;;;;;;3.78;2.22;;;;;;;16.62;98.88;101217.34;10383476;28;96815;-78
2023/12/10 03:11:22;;;;;;;3.08;1.85;;;;;;;16.55;99.24;101215.91;10380585;28;97953;-79
2023/12/10 03:16:26;;;;;;;3.00;1.98;;;;;;;16.58;99.47;101206.94;10384343;28;97169;-78
2023/12/10 03:21:29;;;;;;;3.10;1.58;;;;;;;16.63;99.69;101202.25;10373282;28;96956;-78
2023/12/10 03:26:34;;;;;;;2.35;1.40;;;;;;;16.67;99.44;101209.16;10390782;28;96801;-78
2023/12/10 03:31:38;;;;;;;1.15;0.85;;;;;;;16.63;100.00;101205.78;10376428;28;97971;-78
2023/12/10 03:36:41;;;;;;;0.82;0.47;;;;;;;16.62;100.00;101206.72;10378457;28;96927;-78
2023/12/10 03:41:46;;;;;;;1.33;0.68;;;;;;;16.59;98.78;101203.34;10394949;27;96931;-77
2023/12/10 03:46:50;;;;;;;2.38;0.90;;;;;;;16.66;95.93;101210.06;10400875;28;98988;-78
2023/12/10 03:51:54;;;;;;;0.47;0.40;;;;;;;16.72;94.85;101212.44;10392135;28;96879;-78
2023/12/10 03:56:58;;;;;;;1.58;0.70;;;;;;;16.76;93.78;101217.53;10401353;28;97306;-78
2023/12/10 04:02:02;;;;;;;0.82;0.47;;;;;;;16.82;92.88;101217.22;10394994;28;96771;-78
2023/12/10 04:07:06;;;;;;;1.25;0.73;;;;;;;16.80;93.49;101216.44;10386140;28;97778;-78
2023/12/10 04:12:11;;;;;;;1.00;0.65;;;;;;;16.80;94.61;101218.22;10384944;28;96772;-78
2023/12/10 04:17:14;;;;;;;0.70;0.50;;;;;;;16.82;94.98;101224.34;10388403;28;97083;-77
2023/12/10 04:22:18;;;;;;;0.60;0.50;;;;;;;16.82;95.33;101221.69;10386429;28;96940;-78
2023/12/10 04:27:23;;;;;;;1.88;0.60;;;;;;;16.80;95.62;101223.53;10387794;28;96796;-77
2023/12/10 04:32:27;;;;;;;2.83;0.77;;;;;;;16.81;95.49;101230.56;10401452;28;97002;-77
2023/12/10 04:37:31;;;;;;;1.77;0.40;;;;;;;16.81;95.64;101238.53;10383610;28;98193;-77
2023/12/10 04:42:35;;;;;;;2.25;0.88;;;;;;;16.81;95.51;101234.09;10391792;28;97896;-77
2023/12/10 04:47:39;;;;;;;1.27;0.60;;;;;;;16.80;95.67;101245.69;10387371;28;97171;-77
2023/12/10 04:52:42;;;;;;;3.00;0.55;;;;;;;16.80;95.68;101237.72;10386014;28;96869;-78
2023/12/10 04:57:47;;;;;;;2.63;0.77;;;;;;;16.69;96.00;101232.03;10396579;28;97376;-77
2023/12/10 05:02:51;;;;;;;2.13;0.70;;;;;;;16.68;95.93;101235.66;10406950;28;96767;-78
2023/12/10 05:07:54;;;;;;;0.82;0.50;;;;;;;16.74;95.73;101245.13;10386343;28;97617;-77
2023/12/10 05:12:59;;;;;;;1.48;0.70;;;;;;;16.73;95.57;101238.94;10389681;28;96862;-78
2023/12/10 05:18:03;;;;;;;3.38;0.50;;;;;;;16.67;95.66;101243.72;10394254;28;96746;-77
2023/12/10 05:23:06;;;;;;;1.35;0.70;;;;;;;16.66;95.77;101244.63;10395366;28;98842;-77
2023/12/10 05:28:11;;;;;;;1.40;0.65;;;;;;;16.56;96.14;101238.91;10395554;28;98145;-77
2023/12/10 05:33:14;;;;;;;1.65;0.63;;;;;;;16.64;96.20;101239.38;10382694;28;98925;-77
2023/12/10 05:38:18;;;;;;;1.70;0.80;;;;;;;16.59;96.22;101251.16;10382787;28;98598;-77
2023/12/10 05:43:23;;;;;;;2.33;0.70;;;;;;;16.58;96.20;101241.50;10385943;28;96954;-78
2023/12/10 05:48:27;;;;;;;1.15;0.80;;;;;;;16.58;96.44;101238.84;10381172;28;96928;-78
2023/12/10 05:53:31;;;;;;;;;;;;;;;16.56;96.41;101238.91;10381997;28;98488;-77
2023/12/10 05:58:36;;;;;;;1.67;0.80;;;;;;;16.52;96.13;101239.13;10384994;28;100540;-77
2023/12/10 06:03:39;;;;;;;2.17;1.20;;;;;;;16.53;96.08;101257.63;10392363;28;96855;-78
2023/12/10 06:08:43;;;;;;;4.97;1.20;;;;;;;16.49;96.25;101247.25;10380725;28;97117;-75
2023/12/10 06:13:47;;;;;;;1.20;0.68;;;;;;;16.48;96.37;101249.03;10382208;28;97375;-76
2023/12/10 06:18:50;;;;;;;;;;;;;;;16.48;96.53;101250.84;10393815;28;98739;-75
2023/12/10 06:23:54;;;;;;;0.73;0.73;;;;;;;16.42;96.45;101238.72;10384132;28;98745;-75
2023/12/10 06:28:59;;;;;;;1.88;1.17;;;;;;;16.34;96.27;101250.59;10378756;28;98571;-75
2023/12/10 06:34:03;;;;;;;1.27;1.00;;;;;;;16.33;96.69;101264.81;10397175;28;98871;-76
2023/12/10 06:39:06;;;;;;;2.67;0.88;;;;;;;16.36;96.60;101272.66;10396409;28;97687;-75
2023/12/10 06:44:14;;;;;;;3.58;1.05;;;;;;;16.41;95.98;101268.00;10398906;28;96921;-75
2023/12/10 06:49:18;;;;;;;1.85;1.02;;;;;;;16.40;96.00;101267.13;10381522;28;96972;-76
2023/12/10 06:54:21;;;;;;;0.75;0.70;;;;;;;16.36;95.99;101270.00;10387542;28;97374;-76
2023/12/10 06:59:26;;;;;;;1.90;1.02;;;;;;;16.33;95.79;101278.09;10375592;28;96697;-76
2023/12/10 07:04:29;;;;;;;;;;;;;;;16.27;96.45;101267.75;10372213;28;96969;-76
2023/12/10 07:09:33;;;;;;;2.17;1.00;;;;;;;16.31;96.24;101272.84;10380098;28;96780;-76
2023/12/10 07:14:38;;;;;;;3.13;0.98;;;;;;;16.33;96.47;101275.44;10377761;28;97082;-76
2023/12/10 07:19:41;;;;;;;6.45;2.33;;;;;;;16.24;96.42;101266.09;10375055;28;96891;-76
2023/12/10 07:24:44;;;;;;;1.00;0.90;;;;;;;16.17;96.10;101253.19;10382378;28;96736;-76
2023/12/10 07:29:49;;;;;;;2.88;0.77;;;;;;;16.21;96.05;101254.75;10386777;28;97154;-76
2023/12/10 07:34:53;;;;;;;2.38;1.00;;;;;;;16.28;95.19;101253.53;10386830;28;96904;-76
2023/12/10 07:39:58;;;;;;;3.50;1.60;;;;;;;16.39;94.19;101262.75;10380610;28;97451;-76
2023/12/10 07:45:03;;;;;;;;;;;;;;;16.28;93.88;101259.72;10382635;28;96804;-76
2023/12/10 07:50:08;;;;;;;1.65;1.33;;;;;;;16.29;94.69;101252.63;10374764;28;96875;-75
2023/12/10 07:55:11;;;;;;;3.65;1.58;;;;;;;16.36;94.60;101257.56;10380258;28;98134;-76
2023/12/10 08:00:17;;;;;;;1.58;1.10;;;;;;;16.34;94.60;101258.56;10368997;28;97725;-76
2023/12/10 08:05:21;;;;;;;2.80;1.10;;;;;;;16.42;94.61;101259.97;10364010;28;96998;-76
2023/12/10 08:10:24;;;;;;;2.58;1.10;;;;;;;16.36;94.83;101264.69;10374522;28;96720;-76
2023/12/10 08:15:29;;;;;;;1.70;1.05;;;;;;;16.35;94.76;101270.91;10370186;28;96955;-76
2023/12/10 08:20:33;;;;;;;0.85;0.70;;;;;;;16.36;95.01;101281.47;10369155;28;99006;-76
2023/12/10 08:25:37;;;;;;;3.27;1.37;;;;;;;16.33;95.27;101294.03;10382546;28;98967;-76
2023/12/10 08:30:42;;;;;;;1.20;0.90;;;;;;;16.28;95.00;101301.34;10380174;28;96926;-76
2023/12/10 08:35:46;;;;;;;1.65;0.93;;;;;;;16.37;95.34;101292.97;10389612;28;96870;-76
2023/12/10 08:40:49;;;;;;;3.50;1.70;;;;;;;16.46;95.16;101290.75;10383941;28;97333;-78
2023/12/10 08:45:54;;;;;;;1.83;1.20;;;;;;;16.51;95.13;101296.72;10387165;28;96941;-79
2023/12/10 08:50:58;;;;;;;3.13;1.00;;;;;;;16.52;95.16;101297.56;10383515;28;97252;-78
2023/12/10 08:56:01;;;;;;;2.63;0.98;;;;;;;16.56;95.05;101304.47;10390804;28;96850;-77
2023/12/10 09:01:06;;;;;;;3.40;1.10;;;;;;;16.51;94.94;101310.03;10381106;28;98538;-77
2023/12/10 09:06:10;;;;;;;1.63;1.00;;;;;;;16.62;94.99;101307.69;10373691;22;99107;-74
2023/12/10 09:11:14;;;;;;;3.95;1.20;;;;;;;16.67;95.31;101318.13;10374028;28;100025;-74
2023/12/10 09:16:20;;;;;;;2.58;0.93;;;;;;;16.78;95.11;101329.09;10371062;28;96870;-73
2023/12/10 09:21:23;;;;;;;4.07;1.20;;;;;;;16.83;94.86;101329.72;10375719;28;96911;-72
2023/12/10 09:26:27;;;;;;;1.10;0.90;;;;;;;16.82;95.08;101330.66;10372373;28;97191;-72
2023/12/10 09:31:32;;;;;;;2.42;1.10;;;;;;;16.81;94.93;101328.94;10373403;28;97925;-74
2023/12/10 09:36:36;;;;;;;1.13;0.80;;;;;;;16.89;94.97;101337.41;10375373;28;96924;-73
2023/12/10 09:41:39;;;;;;;2.72;1.27;;;;;;;17.08;94.53;101342.69;10375205;28;96900;-73
2023/12/10 09:46:44;;;;;;;1.20;0.70;;;;;;;17.23;94.28;101348.13;10373573;28;98171;-73
2023/12/10 09:51:48;;;;;;;1.65;0.88;;;;;;;17.32;93.93;101349.47;10376302;28;96729;-73
2023/12/10 09:56:52;;;;;;;4.47;0.80;;;;;;;17.25;93.34;101356.91;10374138;28;96867;-73
2023/12/10 10:01:58;;;;;;;1.00;0.77;;;;;;;17.27;93.26;101355.03;10373775;28;98424;-73
2023/12/10 10:07:05;;;;;;;2.85;1.15;;;;;;;17.31;93.37;101353.06;10360648;28;97208;-73
2023/12/10 10:12:12;;;;;;;2.85;1.00;;;;;;;17.19;93.83;101359.00;10365433;28;96773;-73
2023/12/10 10:17:25;;;;;;;1.70;1.00;;;;;;;17.30;93.71;101367.28;10353546;28;96835;-81
2023/12/10 10:28:09;;;;;;;;;;;;;;;17.34;94.10;101369.75;10366870;28;96728;-82
2023/12/10 10:33:23;;;;;;;4.10;2.00;;;;;;;17.33;94.17;101368.00;10371277;28;97311;-83
2023/12/10 10:38:46;;;;;;;3.65;1.63;;;;;;;17.59;94.26;101364.94;10370080;28;96964;-83
2023/12/10 10:44:00;;;;;;;1.38;0.98;;;;;;;17.84;93.68;101353.91;10366573;28;97245;-84
2023/12/10 10:56:10;;;;;;;2.38;1.13;;;;;;;17.72;93.55;101363.38;10091328;28;98452;-84
2023/12/10 11:07:49;;;;;;;4.22;2.05;;;;;;;17.89;92.96;101346.53;9901201;28;99928;-82
2023/12/10 11:13:02;;;;;;;4.47;2.30;;;;;;;18.22;92.15;101350.06;10274258;28;98272;-84
2023/12/10 11:18:09;;;;;;;1.60;1.23;;;;;;;18.37;91.44;101335.91;10322018;28;97468;-83
2023/12/10 11:23:20;;;;;;;1.80;1.30;;;;;;;18.35;90.79;101323.63;10363333;28;97030;-83
2023/12/10 11:34:45;;;;;;;1.30;0.80;;;;;;;18.19;89.42;101311.13;10333739;28;97574;-83
2023/12/10 11:40:33;;;;;;;;;;;;;;;;;;;;;
2023/12/10 11:45:58;;;;;;;3.58;1.98;;;;;;;18.51;88.16;101301.41;10373039;28;96974;-81
2023/12/10 11:51:14;;;;;;;0.98;0.80;;;;;;;18.73;86.56;101288.56;10362445;28;96809;-81
2023/12/10 11:56:29;;;;;;;1.48;1.17;;;;;;;18.77;86.95;101287.47;10371470;28;97290;-81
2023/12/10 12:01:39;;;;;;;1.20;0.85;;;;;;;18.77;86.92;101263.47;10369611;28;96857;-83
2023/12/10 12:06:46;;;;;;;2.40;0.68;;;;;;;18.94;85.78;101259.81;10367933;28;96890;-79
2023/12/10 12:11:57;;;;;;;0.63;0.50;;;;;;;18.93;85.95;101253.63;10363923;28;97663;-83
2023/12/10 12:17:05;;;;;;;1.05;0.57;;;;;;;18.99;85.98;101249.75;10368480;28;98504;-82
2023/12/10 12:22:12;;;;;;;0.52;0.35;;;;;;;19.19;85.59;101244.97;10375788;28;96840;-79
2023/12/10 12:27:19;;;;;;;0.30;0.20;;;;;;;19.34;83.82;101235.16;10370464;28;97221;-82
2023/12/10 12:32:26;;;;;;;0.73;0.38;;;;;;;19.42;83.25;101227.63;10377147;28;96957;-80
2023/12/10 12:37:47;;;;;;;1.30;0.52;;;;;;;19.41;83.56;101220.53;10407484;28;96855;-81
2023/12/10 12:42:53;;;;;;;1.08;0.47;;;;;;;19.41;83.20;101217.88;10376965;28;96752;-80
2023/12/10 12:48:12;;;;;;;0.15;0.15;;;;;;;19.21;82.11;101216.38;10368042;28;97220;-80
2023/12/10 12:53:22;;;;;;;0.52;0.30;;;;;;;19.13;82.71;101209.75;10393492;28;96655;-80
2023/12/10 12:58:35;;;;;;;0.38;0.28;;;;;;;19.06;82.82;101203.94;10377729;28;98022;-79
2023/12/10 13:03:44;;;;;;;0.38;0.28;;;;;;;18.99;83.41;101209.75;10364891;28;97464;-79
2023/12/10 13:08:51;;;;;;;0.32;0.30;;;;;;;19.05;83.28;101199.56;10383845;28;96803;-79
2023/12/10 13:13:55;;;;;;;0.38;0.30;;;;;;;19.08;83.35;101196.72;10377096;28;97677;-81
2023/12/10 13:19:08;;;;;;;0.35;0.20;;;;;;;19.05;82.56;101180.88;10358114;28;98547;-79
2023/12/10 13:24:13;;;;;;;0.35;0.20;;;;;;;19.08;83.02;101177.16;10369658;28;98412;-79
2023/12/10 13:29:20;;;;;;;0.40;0.32;;;;;;;19.06;82.72;101179.94;10370447;28;96848;-80
2023/12/10 13:34:28;;;;;;;0.30;0.30;;;;;;;18.94;82.96;101166.44;10371908;28;96932;-79
2023/12/10 13:39:34;;;;;;;0.60;0.38;;;;;;;18.91;82.58;101164.84;10371111;28;96828;-80
2023/12/10 13:44:41;;;;;;;0.80;0.40;;;;;;;18.86;82.17;101166.06;10369380;28;96984;-81
2023/12/10 13:49:47;;;;;;;1.08;0.40;;;;;;;18.87;82.17;101162.47;10366231;28;96947;-81
2023/12/10 13:54:53;;;;;;;0.47;0.47;;;;;;;18.88;82.19;101151.69;10370841;28;96857;-81
2023/12/10 14:00:20;;;;;;;1.15;0.60;;;;;;;18.79;80.98;101154.91;10369580;28;98612;-81
2023/12/10 14:05:31;;;;;;;0.65;0.47;;;;;;;18.91;81.16;101153.31;10365625;28;98103;-82
2023/12/10 14:10:38;;;;;;;1.70;0.73;;;;;;;18.93;82.08;101151.41;10369935;28;97203;-80
2023/12/10 14:15:43;;;;;;;0.53;0.47;;;;;;;18.95;81.57;101146.84;10368593;28;97003;-82
2023/12/10 14:20:49;;;;;;;0.43;0.40;;;;;;;18.83;81.61;101148.44;10371910;28;96901;-78
2023/12/10 14:25:54;;;;;;;0.60;0.52;;;;;;;18.76;81.83;101154.22;10367977;28;97974;-80
2023/12/10 14:30:57;;;;;;;0.52;0.50;;;;;;;18.83;82.11;101171.59;10361213;28;98045;-77
2023/12/10 14:36:02;;;;;;;0.93;0.50;;;;;;;18.70;82.68;101159.91;10366935;28;96794;-90
2023/12/10 14:41:06;;;;;;;0.70;0.47;;;;;;;18.56;83.06;101159.88;10380525;28;96774;-91
2023/12/10 14:46:10;;;;;;;0.57;0.50;;;;;;;18.53;82.99;101160.03;10381923;28;96662;-89
2023/12/10 14:51:15;;;;;;;1.10;0.43;;;;;;;18.55;82.71;101161.69;10386289;28;96832;-92
2023/12/10 14:56:19;;;;;;;0.38;0.35;;;;;;;18.55;83.21;101167.00;10377213;28;96868;-90
2023/12/10 15:01:22;;;;;;;0.52;0.40;;;;;;;18.49;82.98;101174.50;10361067;28;96869;-91
2023/12/10 15:06:28;;;;;;;0.65;0.57;;;;;;;18.35;84.07;101164.56;10344213;28;96647;-90
2023/12/10 15:11:34;;;;;;;1.38;0.57;;;;;;;18.33;84.44;101162.97;10337753;28;97492;-90
2023/12/10 15:16:38;;;;;;;1.30;0.55;;;;;;;18.22;84.76;101160.03;10343137;28;98593;-90
2023/12/10 15:21:42;;;;;;;0.70;0.63;;;;;;;18.10;85.31;101174.91;10378167;28;96830;-86
2023/12/10 15:26:46;;;;;;;1.95;1.08;;;;;;;18.10;85.32;101178.44;10376245;28;96742;-90
2023/12/10 15:31:50;;;;;;;0.40;0.40;;;;;;;18.09;84.92;101189.16;10373060;28;96998;-87
2023/12/10 15:36:54;;;;;;;1.45;0.70;;;;;;;18.13;84.42;101206.69;10370824;28;96914;-87
2023/12/10 15:41:58;;;;;;;0.63;0.60;;;;;;;18.06;84.57;101202.66;10380342;28;96741;-84
2023/12/10 15:47:01;;;;;;;0.90;0.77;;;;;;;18.05;84.81;101206.28;10380666;28;96768;-84
2023/12/10 15:52:06;;;;;;;1.27;0.85;;;;;;;18.07;85.37;101204.38;10379623;28;98151;-86
2023/12/10 15:57:10;;;;;;;1.20;0.70;;;;;;;18.10;84.86;101212.19;10377412;28;96877;-86
2023/12/10 16:02:14;;;;;;;1.23;0.80;;;;;;;18.05;84.24;101214.25;10366226;28;97842;-84
2023/12/10 16:07:19;;;;;;;1.73;0.70;;;;;;;18.05;84.62;101222.25;10366321;28;100049;-85
2023/12/10 16:12:22;;;;;;;1.00;0.70;;;;;;;18.01;84.69;101221.56;10373161;28;97800;-87
2023/12/10 16:17:26;;;;;;;1.35;0.73;;;;;;;18.04;83.89;101220.53;10404937;28;96724;-88
2023/12/10 16:22:31;;;;;;;1.00;0.70;;;;;;;18.04;82.97;101231.16;10380112;28;97215;-87
2023/12/10 16:27:34;;;;;;;1.75;0.90;;;;;;;18.05;83.24;101224.91;10378712;28;98213;-89
2023/12/10 16:32:38;;;;;;;1.00;0.63;;;;;;;18.08;82.32;101227.41;10366221;28;97240;-87
2023/12/10 16:37:43;;;;;;;1.45;1.10;;;;;;;18.10;83.17;101226.41;10376603;28;96678;-88
2023/12/10 16:42:46;;;;;;;1.90;1.13;;;;;;;18.12;83.50;101216.50;10376477;28;97311;-87
2023/12/10 16:47:50;;;;;;;2.15;1.10;;;;;;;18.13;83.98;101218.22;10373966;28;96680;-89
2023/12/10 16:52:55;;;;;;;3.17;1.20;;;;;;;18.07;84.56;101225.69;10373111;28;97304;-88
2023/12/10 16:57:59;;;;;;;3.35;1.40;;;;;;;18.05;84.92;101235.56;10375735;28;97292;-88
2023/12/10 17:03:03;;;;;;;2.40;1.10;;;;;;;18.02;85.04;101233.09;10373349;28;96940;-85
2023/12/10 17:08:08;;;;;;;1.00;0.85;;;;;;;17.96;85.20;101236.94;10378420;28;96828;-86
2023/12/10 17:13:12;;;;;;;1.75;1.23;;;;;;;17.82;85.78;101227.97;10375974;28;96784;-86
2023/12/10 17:18:15;;;;;;;1.60;1.20;;;;;;;17.81;85.98;101224.44;10374335;28;96845;-86
2023/12/10 17:23:20;;;;;;;2.00;0.88;;;;;;;17.84;85.66;101229.63;10378578;28;96840;-86
2023/12/10 17:28:24;;;;;;;2.75;1.25;;;;;;;17.84;85.29;101221.63;10375193;28;96790;-86
2023/12/10 17:33:28;;;;;;;3.35;1.17;;;;;;;17.77;85.34;101217.56;10365905;28;98147;-86
2023/12/10 17:38:34;;;;;;;3.28;1.20;;;;;;;17.76;84.93;101234.47;10373197;28;96763;-85
2023/12/10 17:43:37;;;;;;;2.15;1.00;;;;;;;17.77;84.83;101222.91;10376725;28;97251;-86
2023/12/10 17:48:40;;;;;;;2.15;1.33;;;;;;;17.72;85.06;101226.75;10374820;28;96767;-85
2023/12/10 17:53:45;;;;;;;2.08;1.17;;;;;;;17.74;85.05;101232.84;10375439;28;97022;-86
2023/12/10 17:58:49;;;;;;;1.58;1.00;;;;;;;17.69;84.98;101226.91;10386248;28;96770;-86
2023/12/10 18:03:52;;;;;;;2.25;1.20;;;;;;;17.65;85.12;101234.19;10371882;28;96980;-85
2023/12/10 18:08:57;;;;;;;2.78;1.38;;;;;;;17.64;85.08;101221.81;10376527;28;96712;-86
2023/12/10 18:14:00;;;;;;;2.75;1.30;;;;;;;17.63;85.06;101232.53;10384542;28;96727;-86
2023/12/10 18:19:04;;;;;;;1.20;1.10;;;;;;;17.65;85.02;101234.19;10396971;28;96864;-86
2023/12/10 18:24:09;;;;;;;3.60;1.20;;;;;;;17.59;85.05;101231.84;10379448;28;96816;-86
2023/12/10 18:29:13;;;;;;;1.20;0.80;;;;;;;17.58;85.53;101232.81;10376562;28;97112;-87
2023/12/10 18:34:16;;;;;;;2.20;1.55;;;;;;;17.59;85.38;101247.81;10370991;28;96979;-87
2023/12/10 18:39:21;;;;;;;1.58;1.25;;;;;;;17.54;85.78;101249.88;10345556;28;96838;-87
2023/12/10 18:44:25;;;;;;;1.25;0.98;;;;;;;17.51;85.82;101249.16;10374354;28;96917;-86
2023/12/10 18:49:28;;;;;;;2.75;1.30;;;;;;;17.52;85.96;101240.25;10395383;28;96791;-86
2023/12/10 18:54:33;;;;;;;2.58;1.35;;;;;;;17.53;85.75;101237.50;10385241;28;96612;-86
2023/12/10 18:59:37;;;;;;;1.52;1.08;;;;;;;17.57;85.66;101248.84;10374349;28;96857;-86
2023/12/10 19:04:41;;;;;;;2.87;1.37;;;;;;;17.53;85.59;101242.84;10370474;28;98255;-85
2023/12/10 19:09:47;;;;;;;1.65;1.02;;;;;;;17.55;85.31;101242.75;10361678;28;98433;-85
2023/12/10 19:14:51;;;;;;;2.72;1.17;;;;;;;17.54;85.55;101249.88;10370316;28;96857;-84
2023/12/10 19:19:55;;;;;;;1.83;1.45;;;;;;;17.56;85.13;101244.47;10370838;28;97135;-85
2023/12/10 19:25:01;;;;;;;2.60;1.40;;;;;;;17.59;84.96;101246.97;10374245;28;96806;-86
2023/12/10 19:30:06;;;;;;;2.50;1.50;;;;;;;17.52;84.94;101238.44;10361181;28;97041;-85
2023/12/10 19:35:09;;;;;;;4.45;1.52;;;;;;;17.54;85.01;101246.34;10348922;28;97098;-86
2023/12/10 19:40:14;;;;;;;3.15;1.55;;;;;;;17.50;84.95;101232.31;10385691;28;96732;-85
2023/12/10 19:45:18;;;;;;;3.05;1.30;;;;;;;17.54;84.80;101236.56;10410671;28;96739;-85
2023/12/10 19:50:21;;;;;;;2.05;1.55;;;;;;;17.54;85.05;101239.22;10373383;28;96850;-86
2023/12/10 19:55:26;;;;;;;2.30;1.35;;;;;;;17.53;85.15;101226.88;10374389;28;97627;-86
2023/12/10 20:00:30;;;;;;;4.15;1.90;;;;;;;17.40;85.58;101225.75;10366227;28;98246;-85
2023/12/10 20:05:33;;;;;;;2.33;1.77;;;;;;;17.29;86.24;101227.25;10367718;28;97454;-85
2023/12/10 20:10:38;;;;;;;3.22;1.95;;;;;;;17.09;87.25;101222.94;10373340;28;96894;-85
2023/12/10 20:15:42;;;;;;;2.70;1.65;;;;;;;17.06;87.38;101225.75;10398478;28;97249;-86
2023/12/10 20:20:49;;;;;;;2.37;1.90;;;;;;;16.94;87.59;101232.56;10368597;28;96812;-85
2023/12/10 20:25:54;;;;;;;3.08;2.13;;;;;;;17.04;87.18;101224.97;10375576;28;96947;-84
2023/12/10 20:30:58;;;;;;;2.05;1.52;;;;;;;17.11;86.74;101225.50;10381762;28;96704;-86
2023/12/10 20:36:03;;;;;;;5.00;2.45;;;;;;;17.04;86.79;101230.28;10338260;28;96855;-85
2023/12/10 20:41:08;;;;;;;4.43;2.10;;;;;;;17.02;87.06;101230.38;10337973;28;96653;-85
2023/12/10 20:46:11;;;;;;;3.55;1.90;;;;;;;17.09;87.16;101232.75;10376772;28;100624;-85
2023/12/10 20:51:15;;;;;;;4.25;1.95;;;;;;;17.09;86.91;101220.28;10392306;28;96781;-84
2023/12/10 20:56:21;;;;;;;2.90;1.97;;;;;;;17.09;86.90;101220.28;10372498;28;96854;-85
2023/12/10 21:01:27;;;;;;;3.42;1.80;;;;;;;17.07;87.11;101222.16;10373322;28;97888;-84
2023/12/10 21:06:30;;;;;;;4.63;1.85;;;;;;;16.97;86.99;101221.78;10377356;28;96837;-85
2023/12/10 21:11:36;;;;;;;3.15;1.85;;;;;;;16.77;87.51;101226.38;10372582;28;96813;-84
2023/12/10 21:16:39;;;;;;;5.20;3.25;;;;;;;16.61;89.31;101217.41;10367541;28;97306;-84
2023/12/10 21:21:43;;;;;;;3.38;2.50;;;;;;;16.66;88.70;101216.25;10375332;28;96839;-84
2023/12/10 21:26:48;;;;;;;3.25;2.50;;;;;;;16.65;88.77;101224.31;10372168;28;98024;-84
2023/12/10 21:31:51;;;;;;;4.15;2.65;;;;;;;16.68;88.40;101222.38;10371792;28;96812;-84
2023/12/10 21:36:54;;;;;;;3.85;2.53;;;;;;;16.71;88.33;101221.34;10371122;22;98135;-87
2023/12/10 21:42:03;;;;;;;3.25;2.30;;;;;;;16.61;88.47;101214.75;10380912;28;97295;-87
2023/12/10 21:47:09;;;;;;;5.70;2.17;;;;;;;16.58;88.29;101210.47;10372364;28;97010;-86
2023/12/10 21:52:14;;;;;;;4.93;2.80;;;;;;;16.58;88.89;101209.59;10372893;28;97814;-87
2023/12/10 21:57:21;;;;;;;3.90;2.40;;;;;;;16.60;88.57;101208.56;10370160;28;98035;-86
2023/12/10 22:02:26;;;;;;;2.70;2.03;;;;;;;16.61;88.15;101212.09;10375165;28;96812;-86
2023/12/10 22:07:31;;;;;;;4.70;2.42;;;;;;;16.57;88.28;101202.53;10373063;28;96781;-87
2023/12/10 22:12:41;;;;;;;4.10;2.25;;;;;;;16.40;89.24;101199.84;10379835;28;96830;-87
2023/12/10 22:17:51;;;;;;;3.72;2.38;;;;;;;16.47;89.27;101204.81;10373158;28;96944;-88
2023/12/10 22:23:05;;;;;;;3.38;1.92;;;;;;;16.53;89.17;101193.03;10375396;28;101345;-88
2023/12/10 22:28:15;;;;;;;3.30;2.27;;;;;;;16.58;88.65;101191.00;10374696;28;96597;-87
2023/12/10 22:33:22;;;;;;;3.38;2.15;;;;;;;16.55;88.86;101180.53;10373294;28;100906;-86
2023/12/10 22:38:31;;;;;;;6.25;1.90;;;;;;;16.62;88.79;101188.09;10371674;28;97110;-88
2023/12/10 22:43:40;;;;;;;2.33;1.52;;;;;;;16.64;88.36;101198.66;10367096;28;96798;-87
2023/12/10 22:48:46;;;;;;;2.95;1.60;;;;;;;16.47;89.26;101190.66;10383194;27;96635;-87
2023/12/10 22:53:51;;;;;;;3.75;2.28;;;;;;;16.32;90.16;101170.13;10371732;28;96826;-85
2023/12/10 22:58:58;;;;;;;3.65;2.25;;;;;;;16.38;89.36;101176.00;10368696;28;98328;-86
2023/12/10 23:04:03;;;;;;;5.25;1.90;;;;;;;16.36;89.74;101171.72;10372679;28;99962;-87
2023/12/10 23:09:09;;;;;;;2.67;1.80;;;;;;;16.37;89.73;101166.31;10371424;28;96793;-87
2023/12/10 23:14:17;;;;;;;2.65;1.75;;;;;;;16.45;89.30;101179.22;10369832;28;98806;-88
2023/12/10 23:19:22;;;;;;;3.10;1.73;;;;;;;16.40;89.00;101176.81;10368884;28;97182;-86
2023/12/10 23:24:28;;;;;;;2.47;1.48;;;;;;;16.48;88.71;101168.47;10369910;28;96828;-87
2023/12/10 23:29:35;;;;;;;3.88;1.60;;;;;;;16.48;88.84;101179.09;10372174;28;96823;-88
2023/12/10 23:34:39;;;;;;;4.65;1.65;;;;;;;16.44;88.98;101182.84;10370394;28;97242;-88
2023/12/10 23:39:45;;;;;;;2.58;1.55;;;;;;;16.42;89.08;101182.06;10385702;28;96807;-88
2023/12/10 23:44:52;;;;;;;3.38;1.70;;;;;;;16.48;88.64;101169.31;10368560;28;96563;-88
2023/12/10 23:50:01;;;;;;;2.58;1.48;;;;;;;16.48;88.90;101165.81;10365987;28;96726;-87
2023/12/10 23:55:07;;;;;;;3.60;1.55;;;;;;;16.37;88.91;101158.34;10370496;28;97087;-87
